createdAt,value
2019-05-22T00:02:25.134Z,2.00
2019-05-22T00:05:03.543Z,1.97
2019-05-22T00:07:37.001Z,2.00
2019-05-22T00:10:11.035Z,1.93
2019-05-22T00:12:46.962Z,1.90
2019-05-22T00:15:18.900Z,1.80
2019-05-22T00:17:51.784Z,2.00
2019-05-22T00:20:27.348Z,1.63
2019-05-22T00:22:59.663Z,1.77
2019-05-22T00:25:33.506Z,1.80
2019-05-22T00:28:07.015Z,1.80
2019-05-22T00:30:42.123Z,2.13
2019-05-22T00:33:15.030Z,1.90
2019-05-22T00:35:47.435Z,1.90
2019-05-22T00:38:21.380Z,1.53
2019-05-22T00:41:03.567Z,1.97
2019-05-22T00:43:42.160Z,1.70
2019-05-22T00:46:19.068Z,1.93
2019-05-22T00:48:54.278Z,1.73
2019-05-22T00:51:41.031Z,2.00
2019-05-22T00:54:38.879Z,1.90
2019-05-22T00:57:39.807Z,1.90
2019-05-22T01:00:30.958Z,1.70
2019-05-22T01:03:05.777Z,1.67
2019-05-22T01:05:41.797Z,1.60
2019-05-22T01:08:16.934Z,1.67
2019-05-22T01:10:53.149Z,1.83
2019-05-22T01:13:27.897Z,1.70
2019-05-22T01:16:01.601Z,1.80
2019-05-22T01:18:36.011Z,2.00
2019-05-22T01:21:10.488Z,1.70
2019-05-22T01:23:43.767Z,1.80
2019-05-22T01:26:19.370Z,1.60
2019-05-22T01:28:53.773Z,1.60
2019-05-22T01:31:42.146Z,1.60
2019-05-22T01:34:20.943Z,1.80
2019-05-22T01:36:56.711Z,1.80
2019-05-22T01:40:09.373Z,2.13
2019-05-22T01:42:45.220Z,1.83
2019-05-22T01:45:18.744Z,2.00
2019-05-22T01:47:56.946Z,1.80
2019-05-22T01:50:57.687Z,2.17
2019-05-22T01:53:36.163Z,1.90
2019-05-22T01:56:11.766Z,1.70
2019-05-22T01:58:45.390Z,1.90
2019-05-22T02:01:22.224Z,1.60
2019-05-22T02:03:56.821Z,1.60
2019-05-22T02:06:30.194Z,1.80
2019-05-22T02:09:17.274Z,1.80
2019-05-22T02:11:54.464Z,1.63
2019-05-22T02:14:27.686Z,1.50
2019-05-22T02:17:01.440Z,1.50
2019-05-22T02:19:33.968Z,1.40
2019-05-22T02:22:06.931Z,1.60
2019-05-22T02:24:39.396Z,1.30
2019-05-22T02:27:13.939Z,1.97
2019-05-22T02:29:47.466Z,1.90
2019-05-22T02:32:20.933Z,2.53
2019-05-22T02:34:54.245Z,2.87
2019-05-22T02:37:27.533Z,2.70
2019-05-22T02:40:00.019Z,3.10
2019-05-22T02:42:33.190Z,1.80
2019-05-22T02:45:08.265Z,1.50
2019-05-22T02:47:40.862Z,1.40
2019-05-22T02:50:14.102Z,1.40
2019-05-22T02:52:46.129Z,1.10
2019-05-22T02:55:19.229Z,1.43
2019-05-22T02:57:52.033Z,2.87
2019-05-22T03:00:26.720Z,2.27
2019-05-22T03:03:01.765Z,2.80
2019-05-22T03:05:33.975Z,2.83
2019-05-22T03:08:07.258Z,3.70
2019-05-22T03:10:38.907Z,4.30
2019-05-22T03:13:12.698Z,4.90
2019-05-22T03:15:45.499Z,4.50
2019-05-22T03:18:21.719Z,4.57
2019-05-22T03:20:53.817Z,4.50
2019-05-22T03:23:43.746Z,4.70
2019-05-22T03:26:17.054Z,5.20
2019-05-22T03:28:49.766Z,5.03
2019-05-22T03:31:23.419Z,3.47
2019-05-22T03:33:56.512Z,2.37
2019-05-22T03:36:29.160Z,1.80
2019-05-22T03:39:01.767Z,1.77
2019-05-22T03:41:35.842Z,1.50
2019-05-22T03:44:07.381Z,1.50
2019-05-22T03:46:45.826Z,1.30
2019-05-22T03:49:30.052Z,1.57
2019-05-22T03:51:56.428Z,1.60
2019-05-22T03:54:30.145Z,1.45
2019-05-22T03:57:02.096Z,1.50
2019-05-22T03:59:34.650Z,2.67
2019-05-22T04:02:08.757Z,4.87
2019-05-22T04:04:42.565Z,6.28
2019-05-22T04:07:19.398Z,5.72
2019-05-22T04:09:53.613Z,7.35
2019-05-22T04:12:27.037Z,5.77
2019-05-22T04:15:11.163Z,2.03
2019-05-22T04:17:44.438Z,1.60
2019-05-22T04:20:25.440Z,1.62
2019-05-22T04:22:59.020Z,1.65
2019-05-22T04:25:34.894Z,1.70
2019-05-22T04:28:07.779Z,2.12
2019-05-22T04:30:40.018Z,2.65
2019-05-22T04:33:13.001Z,2.27
2019-05-22T04:35:44.930Z,1.80
2019-05-22T04:38:17.143Z,1.50
2019-05-22T04:40:55.743Z,1.50
2019-05-22T04:43:32.202Z,1.60
2019-05-22T04:46:10.031Z,1.72
2019-05-22T04:48:46.152Z,1.65
2019-05-22T04:51:29.167Z,1.60
2019-05-22T04:54:01.563Z,1.50
2019-05-22T04:56:34.099Z,1.67
2019-05-22T04:59:06.948Z,1.40
2019-05-22T05:01:39.241Z,1.32
2019-05-22T05:04:14.267Z,1.20
2019-05-22T05:06:46.589Z,1.20
2019-05-22T05:09:19.749Z,1.00
2019-05-22T05:11:54.099Z,3.95
2019-05-22T05:14:26.471Z,9.08
2019-05-22T05:16:59.242Z,10.82
2019-05-22T05:19:33.182Z,8.18
2019-05-22T05:22:05.306Z,9.25
2019-05-22T05:24:44.357Z,7.15
2019-05-22T05:27:16.800Z,8.63
2019-05-22T05:29:49.328Z,9.23
2019-05-22T05:32:21.046Z,8.68
2019-05-22T05:34:59.491Z,7.47
2019-05-22T05:37:32.194Z,3.12
2019-05-22T05:40:39.669Z,1.20
2019-05-22T05:43:14.464Z,1.22
2019-05-22T05:45:50.075Z,1.20
2019-05-22T05:48:24.416Z,1.30
2019-05-22T05:51:27.631Z,1.40
2019-05-22T05:54:05.847Z,1.25
2019-05-22T05:56:41.055Z,1.27
2019-05-22T05:59:14.172Z,1.50
2019-05-22T06:01:56.037Z,1.50
2019-05-22T06:04:35.477Z,1.50
2019-05-22T06:07:26.893Z,2.17
2019-05-22T06:10:31.522Z,2.08
2019-05-22T06:13:05.362Z,1.62
2019-05-22T06:15:59.163Z,1.57
2019-05-22T06:18:36.522Z,1.92
2019-05-22T06:21:10.024Z,2.00
2019-05-22T06:24:19.149Z,1.80
2019-05-22T06:27:27.203Z,1.80
2019-05-22T06:30:07.292Z,1.70
2019-05-22T06:33:18.137Z,1.55
2019-05-22T06:35:51.587Z,1.60
2019-05-22T06:39:05.113Z,1.15
2019-05-22T06:41:38.698Z,1.67
2019-05-22T06:44:42.722Z,1.27
2019-05-22T06:47:22.117Z,1.82
2019-05-22T06:49:58.663Z,1.55
2019-05-22T06:52:30.915Z,1.60
2019-05-22T06:55:03.516Z,1.35
2019-05-22T06:57:36.222Z,1.30
2019-05-22T07:00:28.708Z,1.25
2019-05-22T07:03:02.042Z,1.90
2019-05-22T07:05:34.035Z,1.52
2019-05-22T07:08:07.316Z,1.50
2019-05-22T07:10:41.428Z,1.67
2019-05-22T07:13:14.320Z,1.62
2019-05-22T07:15:50.484Z,1.70
2019-05-22T07:18:26.804Z,1.80
2019-05-22T07:20:59.741Z,1.60
2019-05-22T07:23:33.056Z,1.70
2019-05-22T07:26:06.113Z,1.75
2019-05-22T07:28:39.990Z,1.55
2019-05-22T07:31:11.779Z,1.50
2019-05-22T07:33:44.078Z,1.60
2019-05-22T07:36:17.551Z,1.65
2019-05-22T07:38:50.292Z,1.70
2019-05-22T07:41:23.872Z,1.45
2019-05-22T07:43:55.324Z,1.62
2019-05-22T07:46:30.782Z,1.62
2019-05-22T07:49:01.925Z,1.70
2019-05-22T07:51:51.406Z,1.52
2019-05-22T07:54:09.437Z,1.90
2019-05-22T07:56:42.974Z,2.05
2019-05-22T07:59:15.344Z,1.95
2019-05-22T08:01:47.896Z,2.30
2019-05-22T08:04:20.905Z,2.10
2019-05-22T08:06:53.873Z,2.40
2019-05-22T08:09:28.063Z,1.98
2019-05-22T08:12:01.208Z,1.57
2019-05-22T08:18:22.068Z,1.65
2019-05-22T08:20:54.039Z,1.72
2019-05-22T08:23:27.898Z,2.02
2019-05-22T08:26:00.753Z,1.55
2019-05-22T08:28:33.686Z,1.30
2019-05-22T08:31:07.686Z,1.40
2019-05-22T08:33:40.121Z,1.70
2019-05-22T08:36:12.533Z,1.50
2019-05-22T08:38:45.889Z,2.00
2019-05-22T08:41:22.834Z,2.90
2019-05-22T08:44:14.747Z,2.37
2019-05-22T08:46:30.205Z,2.80
2019-05-22T08:49:03.240Z,2.70
2019-05-22T08:51:35.787Z,2.77
2019-05-22T08:54:08.141Z,2.90
2019-05-22T08:56:43.905Z,3.72
2019-05-22T08:59:19.860Z,3.10
2019-05-22T09:01:57.694Z,4.95
2019-05-22T09:04:30.016Z,4.85
2019-05-22T09:07:02.064Z,1.65
2019-05-22T09:09:34.784Z,1.20
2019-05-22T09:12:08.519Z,1.05
2019-05-22T09:14:40.889Z,1.12
2019-05-22T09:17:17.262Z,1.40
2019-05-22T09:19:49.015Z,1.00
2019-05-22T09:22:21.329Z,1.10
2019-05-22T09:24:54.131Z,1.30
2019-05-22T09:27:26.379Z,1.00
2019-05-22T09:29:58.651Z,1.17
2019-05-22T09:32:31.117Z,1.22
2019-05-22T09:35:03.327Z,1.30
2019-05-22T09:37:35.847Z,1.27
2019-05-22T09:40:10.208Z,1.07
2019-05-22T09:42:43.306Z,1.10
2019-05-22T09:45:19.004Z,1.20
2019-05-22T09:47:54.181Z,1.07
2019-05-22T09:50:26.297Z,1.02
2019-05-22T09:53:23.863Z,0.70
2019-05-22T09:55:56.058Z,1.50
2019-05-22T09:58:28.985Z,1.30
2019-05-22T10:01:01.935Z,1.00
2019-05-22T10:03:34.236Z,1.20
2019-05-22T10:06:07.385Z,1.15
2019-05-22T10:08:42.854Z,1.20
2019-05-22T10:11:17.953Z,1.05
2019-05-22T10:13:55.503Z,1.42
2019-05-22T10:16:27.564Z,1.98
2019-05-22T10:19:00.255Z,1.17
2019-05-22T10:21:32.455Z,1.25
2019-05-22T10:24:05.799Z,1.32
2019-05-22T10:26:38.152Z,1.15
2019-05-22T10:29:10.678Z,1.00
2019-05-22T10:31:43.206Z,1.10
2019-05-22T10:34:15.466Z,1.12
2019-05-22T10:36:48.074Z,0.95
2019-05-22T10:39:24.617Z,1.00
2019-05-22T10:41:58.361Z,0.80
2019-05-22T10:44:30.934Z,1.00
2019-05-22T10:47:02.627Z,1.05
2019-05-22T10:49:36.325Z,0.93
2019-05-22T10:52:08.909Z,1.20
2019-05-22T10:54:40.819Z,1.22
2019-05-22T10:57:14.192Z,1.00
2019-05-22T10:59:46.383Z,1.17
2019-05-22T11:02:18.811Z,1.17
2019-05-22T11:04:53.938Z,1.52
2019-05-22T11:07:26.343Z,1.42
2019-05-22T11:09:59.555Z,1.40
2019-05-22T11:12:32.671Z,1.22
2019-05-22T11:15:09.432Z,1.10
2019-05-22T11:17:41.850Z,1.00
2019-05-22T11:20:14.553Z,1.22
2019-05-22T11:22:46.906Z,1.27
2019-05-22T11:25:20.550Z,1.40
2019-05-22T11:27:53.502Z,1.32
2019-05-22T11:30:26.189Z,1.20
2019-05-22T11:32:58.496Z,1.15
2019-05-22T11:35:34.143Z,1.10
2019-05-22T11:38:13.000Z,1.20
2019-05-22T11:40:56.598Z,1.32
2019-05-22T11:43:35.643Z,1.57
2019-05-22T11:46:11.546Z,1.67
2019-05-22T11:48:43.316Z,1.40
2019-05-22T11:51:17.360Z,1.57
2019-05-22T11:53:49.881Z,1.57
2019-05-22T11:56:21.958Z,1.47
2019-05-22T11:58:54.840Z,1.75
2019-05-22T12:01:26.319Z,1.57
2019-05-22T12:04:01.004Z,1.72
2019-05-22T12:06:35.871Z,2.08
2019-05-22T12:09:10.108Z,2.05
2019-05-22T12:11:43.402Z,1.70
2019-05-22T12:14:17.328Z,1.77
2019-05-22T12:16:53.306Z,2.02
2019-05-22T12:19:30.067Z,1.80
2019-05-22T12:22:05.666Z,1.45
2019-05-22T12:25:01.727Z,1.50
2019-05-22T12:27:38.522Z,1.47
2019-05-22T12:30:15.051Z,1.40
2019-05-22T12:32:50.380Z,1.75
2019-05-22T12:35:48.744Z,1.90
2019-05-22T12:38:28.601Z,1.70
2019-05-22T12:41:15.448Z,1.30
2019-05-22T12:43:54.560Z,1.37
2019-05-22T12:46:28.654Z,1.60
2019-05-22T12:49:08.376Z,1.55
2019-05-22T12:51:39.613Z,1.50
2019-05-22T12:54:19.403Z,1.42
2019-05-22T12:57:04.483Z,1.90
2019-05-22T12:59:43.708Z,1.80
2019-05-22T13:02:26.376Z,1.60
2019-05-22T13:05:13.979Z,1.50
2019-05-22T13:09:08.952Z,1.87
2019-05-22T13:15:43.226Z,1.67
2019-05-22T13:18:22.034Z,1.90
2019-05-22T13:20:55.170Z,1.45
2019-05-22T13:23:34.326Z,2.08
2019-05-22T13:26:06.819Z,1.75
2019-05-22T13:28:43.212Z,1.47
2019-05-22T13:31:16.903Z,1.35
2019-05-22T13:33:53.031Z,1.30
2019-05-22T13:36:25.347Z,2.00
2019-05-22T13:38:57.974Z,2.20
2019-05-22T13:41:30.450Z,1.95
2019-05-22T13:44:03.973Z,1.80
2019-05-22T13:46:37.047Z,1.82
2019-05-22T13:49:08.589Z,1.80
2019-05-22T13:51:41.737Z,2.00
2019-05-22T13:54:14.947Z,2.22
2019-05-22T13:57:04.545Z,1.90
2019-05-22T13:59:37.987Z,1.77
2019-05-22T14:02:09.967Z,1.80
2019-05-22T14:04:42.712Z,1.80
2019-05-22T14:07:15.221Z,2.00
2019-05-22T14:09:47.366Z,2.10
2019-05-22T14:12:20.290Z,2.05
2019-05-22T14:14:52.915Z,1.95
2019-05-22T14:17:25.472Z,2.00
2019-05-22T14:19:58.407Z,1.60
2019-05-22T14:22:30.096Z,1.55
2019-05-22T14:25:02.551Z,1.62
2019-05-22T14:27:34.966Z,1.90
2019-05-22T14:30:07.916Z,1.70
2019-05-22T14:32:40.441Z,1.50
2019-05-22T14:35:14.001Z,2.00
2019-05-22T14:37:46.350Z,1.60
2019-05-22T14:40:20.265Z,2.10
2019-05-22T14:42:51.837Z,2.10
2019-05-22T14:45:24.790Z,1.70
2019-05-22T14:48:00.201Z,1.65
2019-05-22T14:50:33.377Z,2.00
2019-05-22T14:53:05.822Z,2.15
2019-05-22T14:55:39.186Z,2.12
2019-05-22T14:58:12.824Z,2.22
2019-05-22T15:00:45.103Z,1.98
2019-05-22T15:03:19.056Z,2.33
2019-05-22T15:05:52.026Z,1.70
2019-05-22T15:08:24.086Z,2.15
2019-05-22T15:10:57.777Z,1.90
2019-05-22T15:13:30.818Z,1.65
2019-05-22T15:16:02.465Z,2.62
2019-05-22T15:18:34.818Z,1.80
2019-05-22T15:21:08.472Z,2.17
2019-05-22T15:23:41.947Z,2.75
2019-05-22T15:26:15.021Z,1.82
2019-05-22T15:28:47.334Z,1.70
2019-05-22T15:31:19.877Z,1.57
2019-05-22T15:33:52.250Z,1.50
2019-05-22T15:36:25.261Z,1.57
2019-05-22T15:38:58.157Z,2.00
2019-05-22T15:41:30.438Z,2.02
2019-05-22T15:44:02.516Z,2.10
2019-05-22T15:46:35.135Z,1.82
2019-05-22T15:49:09.044Z,2.20
2019-05-22T15:51:42.835Z,1.40
2019-05-22T15:54:18.036Z,1.90
2019-05-22T15:56:52.951Z,2.10
2019-05-22T15:59:27.972Z,1.95
2019-05-22T16:02:05.235Z,1.80
2019-05-22T16:04:41.416Z,1.92
2019-05-22T16:07:15.271Z,2.10
2019-05-22T16:09:50.714Z,1.60
2019-05-22T16:12:25.377Z,1.65
2019-05-22T16:14:57.572Z,1.30
2019-05-22T16:17:32.716Z,1.40
2019-05-22T16:20:05.350Z,1.60
2019-05-22T16:22:37.855Z,1.62
2019-05-22T16:25:11.460Z,1.62
2019-05-22T16:27:45.772Z,1.40
2019-05-22T16:30:21.504Z,2.00
2019-05-22T16:32:56.328Z,2.15
2019-05-22T16:35:28.485Z,1.82
2019-05-22T16:38:06.925Z,1.70
2019-05-22T16:40:45.586Z,2.70
2019-05-22T16:43:24.136Z,2.80
2019-05-22T16:45:56.769Z,1.90
2019-05-22T16:48:32.760Z,1.62
2019-05-22T16:51:05.249Z,1.65
2019-05-22T16:53:40.652Z,1.75
2019-05-22T16:56:13.055Z,2.45
2019-05-22T16:58:47.108Z,1.72
2019-05-22T17:01:24.457Z,2.00
2019-05-22T17:03:59.835Z,2.27
2019-05-22T17:06:33.510Z,2.33
2019-05-22T17:09:08.897Z,1.80
2019-05-22T17:11:42.627Z,2.20
2019-05-22T17:14:17.935Z,2.17
2019-05-22T17:16:52.976Z,3.65
2019-05-22T17:19:27.567Z,1.90
2019-05-22T17:22:00.173Z,2.08
2019-05-22T17:24:34.309Z,4.35
2019-05-22T17:27:08.244Z,2.50
2019-05-22T17:29:41.572Z,2.10
2019-05-22T17:32:26.793Z,2.10
2019-05-22T17:35:00.370Z,1.70
2019-05-22T17:37:34.075Z,2.30
2019-05-22T17:40:08.853Z,2.20
2019-05-22T17:42:41.350Z,2.10
2019-05-22T17:45:16.708Z,2.40
2019-05-22T17:47:50.135Z,2.77
2019-05-22T17:50:26.853Z,2.87
2019-05-22T17:52:58.854Z,3.10
2019-05-22T17:55:32.189Z,3.52
2019-05-22T17:58:06.198Z,2.90
2019-05-22T18:00:41.335Z,3.25
2019-05-22T18:03:13.296Z,2.62
2019-05-22T18:05:45.400Z,1.95
2019-05-22T18:08:18.150Z,2.00
2019-05-22T18:10:51.206Z,1.82
2019-05-22T18:13:24.074Z,2.02
2019-05-22T18:15:59.448Z,2.00
2019-05-22T18:18:31.625Z,1.90
2019-05-22T18:21:04.259Z,2.00
2019-05-22T18:23:36.143Z,2.02
2019-05-22T18:26:08.584Z,1.70
2019-05-22T18:28:42.108Z,1.95
2019-05-22T18:31:24.335Z,1.85
2019-05-22T18:33:56.899Z,2.00
2019-05-22T18:36:28.486Z,1.85
2019-05-22T18:39:30.354Z,2.00
2019-05-22T18:42:04.962Z,1.92
2019-05-22T18:44:46.708Z,2.33
2019-05-22T18:47:26.556Z,2.50
2019-05-22T18:50:02.292Z,2.05
2019-05-22T18:52:40.982Z,2.12
2019-05-22T18:55:27.682Z,2.20
2019-05-22T18:58:02.162Z,2.10
2019-05-22T19:00:37.222Z,2.30
2019-05-22T19:03:13.310Z,2.10
2019-05-22T19:05:45.447Z,2.08
2019-05-22T19:08:23.912Z,2.30
2019-05-22T19:10:56.419Z,2.15
2019-05-22T19:13:28.037Z,2.60
2019-05-22T19:16:04.264Z,2.40
2019-05-22T19:18:40.679Z,2.30
2019-05-22T19:21:17.497Z,2.20
2019-05-22T19:23:50.119Z,2.42
2019-05-22T19:26:23.499Z,2.50
2019-05-22T19:28:59.078Z,2.12
2019-05-22T19:31:31.585Z,1.95
2019-05-22T19:34:03.280Z,2.00
2019-05-22T19:36:36.631Z,2.10
2019-05-22T19:39:10.379Z,2.15
2019-05-22T19:41:42.664Z,2.40
2019-05-22T19:44:15.595Z,2.08
2019-05-22T19:46:48.426Z,2.30
2019-05-22T19:49:20.973Z,1.98
2019-05-22T19:51:54.162Z,2.17
2019-05-22T19:54:26.874Z,2.60
2019-05-22T19:57:04.742Z,2.83
2019-05-22T19:59:38.330Z,2.30
2019-05-22T20:02:12.464Z,1.95
2019-05-22T20:04:44.815Z,2.15
2019-05-22T20:07:18.117Z,2.40
2019-05-22T20:09:51.515Z,1.92
2019-05-22T20:12:24.944Z,2.25
2019-05-22T20:14:58.590Z,2.20
2019-05-22T20:17:30.562Z,2.80
2019-05-22T20:20:02.360Z,2.52
2019-05-22T20:22:35.018Z,2.92
2019-05-22T20:25:08.883Z,2.50
2019-05-22T20:27:41.697Z,3.00
2019-05-22T20:30:15.826Z,2.87
2019-05-22T20:32:47.718Z,3.00
2019-05-22T20:35:20.504Z,2.62
2019-05-22T20:37:52.471Z,2.55
2019-05-22T20:40:25.157Z,2.70
2019-05-22T20:42:58.133Z,2.98
2019-05-22T20:45:30.710Z,3.05
2019-05-22T20:48:12.489Z,3.02
2019-05-22T20:50:44.816Z,2.70
2019-05-22T20:53:17.401Z,2.80
2019-05-22T20:55:50.453Z,2.90
2019-05-22T20:58:24.081Z,2.90
2019-05-22T21:00:55.726Z,2.87
2019-05-22T21:03:27.795Z,3.00
2019-05-22T21:06:00.179Z,3.10
2019-05-22T21:08:33.455Z,2.98
2019-05-22T21:11:08.831Z,3.47
2019-05-22T21:13:40.918Z,3.45
2019-05-22T21:16:14.806Z,3.35
2019-05-22T21:18:51.873Z,3.58
2019-05-22T21:21:25.652Z,3.90
2019-05-22T21:24:10.599Z,3.60
2019-05-22T21:26:32.041Z,4.03
2019-05-22T21:29:05.122Z,3.45
2019-05-22T21:31:38.117Z,3.62
2019-05-22T21:34:10.208Z,3.90
2019-05-22T21:36:42.816Z,3.80
2019-05-22T21:39:31.627Z,3.90
2019-05-22T21:42:29.980Z,3.75
2019-05-22T21:45:27.723Z,3.67
2019-05-22T21:48:41.770Z,3.75
2019-05-22T21:51:37.585Z,3.07
2019-05-22T21:54:49.708Z,3.80
2019-05-22T21:57:28.093Z,3.40
2019-05-22T22:00:00.997Z,3.37
2019-05-22T22:02:51.064Z,2.90
2019-05-22T22:08:54.231Z,3.00
2019-05-22T22:11:29.406Z,3.05
2019-05-22T22:14:01.621Z,2.87
2019-05-22T22:16:33.660Z,2.60
2019-05-22T22:19:07.612Z,2.47
2019-05-22T22:21:40.842Z,2.47
2019-05-22T22:24:14.801Z,2.20
2019-05-22T22:26:50.769Z,2.17
2019-05-22T22:29:23.328Z,2.10
2019-05-22T22:31:58.640Z,2.03
2019-05-22T22:34:47.641Z,2.40
2019-05-22T22:37:19.936Z,2.40
2019-05-22T22:39:56.727Z,2.00
2019-05-22T22:42:31.705Z,2.10
2019-05-22T22:45:06.286Z,2.00
2019-05-22T22:47:41.106Z,1.70
2019-05-22T22:50:14.014Z,2.23
2019-05-22T22:52:48.891Z,2.20
2019-05-22T22:55:23.410Z,2.25
2019-05-22T22:57:56.800Z,1.90
2019-05-22T23:00:40.238Z,2.10
2019-05-22T23:03:14.352Z,2.03
2019-05-22T23:05:49.522Z,2.23
2019-05-22T23:08:26.161Z,2.10
2019-05-22T23:10:57.769Z,2.00
2019-05-22T23:13:30.910Z,2.00
2019-05-22T23:16:04.655Z,2.27
2019-05-22T23:19:31.462Z,1.95
2019-05-22T23:22:03.577Z,2.42
2019-05-22T23:24:39.075Z,2.13
2019-05-22T23:27:13.631Z,2.37
2019-05-22T23:29:46.265Z,2.40
2019-05-22T23:32:21.214Z,2.27
2019-05-22T23:34:54.935Z,2.10
2019-05-22T23:37:27.812Z,2.47
2019-05-22T23:40:00.212Z,2.10
2019-05-22T23:42:39.767Z,2.30
2019-05-22T23:45:17.020Z,2.15
2019-05-22T23:48:17.582Z,2.40
2019-05-22T23:50:50.191Z,2.23
2019-05-22T23:53:24.242Z,2.20
2019-05-22T23:55:56.914Z,2.37
2019-05-22T23:58:29.414Z,2.10
